Time;durP1;ratioP1;P1;durP2;ratioP2;P2;SDS_P1;SDS_P2;PMS_P1;PMS_P2;Temp;Humidity;BMP_temperature;BMP_pressure;BME280_temperature;BME280_humidity;BME280_pressure;Samples;Min_cycle;Max_cycle;Signal;HPM_P1;HPM_P2
2021/12/24 05:40:16;;;;;;;;;;;;;;;3.98;100.00;98319.91;5444512;23;19978;-68
2021/12/24 05:42:44;;;;;;;;;;;;;;;4.01;100.00;98307.28;4901594;29;19961;-67
2021/12/24 05:45:11;;;;;;;;;;;;;;;4.06;100.00;98323.63;4902514;29;19949;-68
2021/12/24 05:48:08;;;;;;;;;;;;;;;4.06;100.00;98307.03;4906179;29;19977;-68
2021/12/24 05:50:35;;;;;;;;;;;;;;;4.03;100.00;98318.81;4901424;29;19958;-68
2021/12/24 05:53:38;;;;;;;;;;;;;;;4.05;100.00;98307.41;4860132;29;19959;-68
2021/12/24 05:56:12;;;;;;;;;;;;;;;4.09;100.00;98309.09;4909904;29;19950;-68
2021/12/24 05:58:42;;;;;;;;;;;;;;;4.09;100.00;98302.75;4901752;29;20369;-68
2021/12/24 06:01:10;;;;;;;;;;;;;;;4.12;100.00;98313.13;4901209;29;19958;-68
2021/12/24 06:03:47;;;;;;;;;;;;;;;4.10;100.00;98321.78;4904475;29;19956;-68
2021/12/24 06:06:15;;;;;;;;;;;;;;;4.15;100.00;98313.22;4917665;29;19953;-68
2021/12/24 06:08:42;;;;;;;;;;;;;;;4.10;100.00;98327.31;4917219;29;19966;-68
2021/12/24 06:11:09;;;;;;;;;;;;;;;4.10;100.00;98316.25;4918677;29;19952;-68
2021/12/24 06:13:37;;;;;;;;;;;;;;;4.12;100.00;98313.94;4917876;29;19961;-68
2021/12/24 06:16:06;;;;;;;;;;;;;;;4.15;100.00;98324.28;4917651;29;19957;-68
2021/12/24 06:18:37;;;;;;;;;;;;;;;4.15;100.00;98318.75;4917372;29;19950;-67
2021/12/24 06:21:05;;;;;;;;;;;;;;;4.12;100.00;98329.72;4918212;29;19949;-68
2021/12/24 06:23:33;;;;;;;;;;;;;;;4.09;100.00;98325.69;4917008;29;19957;-68
2021/12/24 06:26:00;;;;;;;;;;;;;;;4.08;100.00;98313.03;4916900;29;19948;-68
2021/12/24 06:28:28;;;;;;;;;;;;;;;4.09;100.00;98289.72;4917556;29;20280;-68
2021/12/24 06:30:55;;;;;;;;;;;;;;;4.08;100.00;98304.72;4918560;29;19948;-68
2021/12/24 06:33:23;;;;;;;;;;;;;;;4.12;100.00;98302.84;4917735;29;19959;-68
2021/12/24 06:35:53;;;;;;;;;;;;;;;4.14;100.00;98300.53;4917353;29;19967;-68
2021/12/24 06:38:20;;;;;;;;;;;;;;;4.10;100.00;98315.44;4917919;29;20272;-68
2021/12/24 06:40:48;;;;;;;;;;;;;;;3.97;100.00;98312.75;4907839;29;19966;-68
2021/12/24 06:43:15;;;;;;;;;;;;;;;3.96;100.00;98302.81;4917168;29;19958;-68
2021/12/24 06:45:43;;;;;;;;;;;;;;;3.95;100.00;98317.03;4914289;29;19953;-68
2021/12/24 06:48:10;;;;;;;;;;;;;;;3.86;100.00;98322.69;4900991;29;19974;-68
2021/12/24 06:50:38;;;;;;;;;;;;;;;3.85;100.00;98325.81;4917513;29;19953;-69
2021/12/24 06:53:05;;;;;;;;;;;;;;;3.89;100.00;98318.41;4915557;29;19997;-69
2021/12/24 06:55:32;;;;;;;;;;;;;;;3.83;100.00;98320.66;4910530;29;19956;-69
2021/12/24 06:58:05;;;;;;;;;;;;;;;3.87;100.00;98304.16;4890038;29;19964;-68
2021/12/24 07:00:34;;;;;;;;;;;;;;;3.85;100.00;98287.91;4896166;29;19953;-69
2021/12/24 07:03:03;;;;;;;;;;;;;;;3.94;100.00;98301.56;4898972;29;19959;-69
2021/12/24 07:05:30;;;;;;;;;;;;;;;3.93;100.00;98292.50;4911590;29;19952;-68
2021/12/24 07:07:58;;;;;;;;;;;;;;;3.93;100.00;98309.09;4910372;29;20420;-68
2021/12/24 07:10:25;;;;;;;;;;;;;;;3.92;100.00;98301.94;4914080;29;19952;-68
2021/12/24 07:12:53;;;;;;;;;;;;;;;3.93;100.00;98316.56;4920486;29;19960;-68
2021/12/24 07:15:20;;;;;;;;;;;;;;;3.99;100.00;98318.72;4903761;29;19956;-68
2021/12/24 07:17:48;;;;;;;;;;;;;;;4.02;100.00;98295.06;4881390;29;20256;-68
2021/12/24 07:20:16;;;;;;;;;;;;;;;4.00;100.00;98297.41;4898138;29;19955;-68
2021/12/24 07:22:43;;;;;;;;;;;;;;;3.96;100.00;98315.88;4898402;29;19952;-68
2021/12/24 07:25:10;;;;;;;;;;;;;;;3.97;100.00;98307.22;4898750;29;19944;-68
2021/12/24 07:27:38;;;;;;;;;;;;;;;3.95;100.00;98315.06;4898412;29;20387;-68
2021/12/24 07:30:08;;;;;;;;;;;;;;;3.99;100.00;98315.94;4898271;29;19956;-69
2021/12/24 07:32:37;;;;;;;;;;;;;;;4.06;100.00;98306.25;4913786;29;19964;-68
2021/12/24 07:35:04;;;;;;;;;;;;;;;4.13;100.00;98303.66;4898825;29;19949;-68
2021/12/24 07:37:31;;;;;;;;;;;;;;;4.04;100.00;98306.59;4881706;29;20251;-69
2021/12/24 07:40:00;;;;;;;;;;;;;;;4.00;100.00;98311.22;4897788;29;20393;-68
2021/12/24 07:42:28;;;;;;;;;;;;;;;3.92;100.00;98312.19;4898065;29;19966;-68
2021/12/24 07:44:55;;;;;;;;;;;;;;;3.97;100.00;98312.75;4898567;29;19961;-68
2021/12/24 07:47:33;;;;;;;;;;;;;;;4.01;100.00;98307.28;4898740;29;19961;-68
2021/12/24 07:50:04;;;;;;;;;;;;;;;4.03;100.00;98313.28;4898452;29;19954;-68
2021/12/24 07:52:31;;;;;;;;;;;;;;;4.01;100.00;98315.59;4898048;29;20330;-68
2021/12/24 07:54:59;;;;;;;;;;;;;;;4.01;100.00;98323.09;4897918;29;19949;-68
2021/12/24 07:57:36;;;;;;;;;;;;;;;3.91;100.00;98316.91;4898424;29;19985;-68
2021/12/24 08:00:05;;;;;;;;;;;;;;;4.02;100.00;98319.97;4898386;29;19955;-68
2021/12/24 08:02:41;;;;;;;;;;;;;;;3.89;100.00;98299.88;4897857;29;19952;-68
2021/12/24 08:05:09;;;;;;;;;;;;;;;3.94;100.00;98302.38;4898002;29;20354;-68
2021/12/24 08:07:36;;;;;;;;;;;;;;;3.86;100.00;98294.25;4898695;29;19961;-68
2021/12/24 08:10:04;;;;;;;;;;;;;;;3.86;100.00;98297.03;4898630;29;19958;-68
2021/12/24 08:12:31;;;;;;;;;;;;;;;3.98;100.00;98308.03;4901418;29;20263;-68
2021/12/24 08:14:59;;;;;;;;;;;;;;;3.84;100.00;98291.00;4901584;29;20386;-68
2021/12/24 08:17:26;;;;;;;;;;;;;;;3.92;100.00;98288.09;4901586;29;19961;-68
2021/12/24 08:19:53;;;;;;;;;;;;;;;3.90;100.00;98287.66;4902269;29;19961;-68
2021/12/24 08:22:21;;;;;;;;;;;;;;;3.89;100.00;98290.75;4901870;29;19950;-68
2021/12/24 08:24:48;;;;;;;;;;;;;;;3.87;100.00;98295.84;4901545;29;19953;-68
2021/12/24 08:27:16;;;;;;;;;;;;;;;3.90;100.00;98286.84;4902420;29;19955;-68
2021/12/24 08:29:44;;;;;;;;;;;;;;;3.89;100.00;98276.94;4901702;29;19969;-68
2021/12/24 08:32:11;;;;;;;;;;;;;;;3.94;100.00;98274.72;4903332;29;19957;-68
2021/12/24 08:34:39;;;;;;;;;;;;;;;3.96;100.00;98282.69;4919813;29;19955;-68
2021/12/24 08:37:07;;;;;;;;;;;;;;;3.98;100.00;98277.59;4909442;29;19963;-68
2021/12/24 08:39:34;;;;;;;;;;;;;;;4.06;100.00;98268.28;4914598;29;19974;-68
2021/12/24 08:42:02;;;;;;;;;;;;;;;4.02;100.00;98264.63;4918782;29;19963;-68
2021/12/24 08:44:31;;;;;;;;;;;;;;;4.06;100.00;98256.44;4919898;29;19950;-68
2021/12/24 08:47:01;;;;;;;;;;;;;;;4.06;100.00;98260.00;4913967;29;19948;-68
2021/12/24 08:49:28;;;;;;;;;;;;;;;4.09;100.00;98275.88;4920189;29;19971;-68
2021/12/24 08:51:56;;;;;;;;;;;;;;;4.10;100.00;98265.63;4916453;29;19961;-68
2021/12/24 08:54:24;;;;;;;;;;;;;;;4.15;100.00;98246.81;4910123;29;20215;-68
2021/12/24 08:56:52;;;;;;;;;;;;;;;4.15;100.00;98246.81;4918723;29;19951;-68
2021/12/24 08:59:19;;;;;;;;;;;;;;;4.21;100.00;98236.25;4914194;29;19960;-68
2021/12/24 09:01:46;;;;;;;;;;;;;;;4.14;100.00;98233.31;4914021;29;19964;-68
2021/12/24 09:04:14;;;;;;;;;;;;;;;4.18;100.00;98234.22;4903998;29;19957;-68
2021/12/24 09:06:42;;;;;;;;;;;;;;;4.29;100.00;98238.03;4900983;29;20425;-68
2021/12/24 09:09:10;;;;;;;;;;;;;;;4.34;100.00;98238.59;4912787;29;19967;-68
2021/12/24 09:11:39;;;;;;;;;;;;;;;4.36;100.00;98240.97;4917561;29;20230;-68
2021/12/24 09:14:07;;;;;;;;;;;;;;;4.35;100.00;98253.22;4917222;29;19965;-68
2021/12/24 09:16:35;;;;;;;;;;;;;;;4.38;100.00;98250.53;4919232;29;19955;-68
2021/12/24 09:19:07;;;;;;;;;;;;;;;4.40;100.00;98255.72;4918257;29;19963;-68
2021/12/24 09:21:35;;;;;;;;;;;;;;;4.40;100.00;98245.44;4918687;29;19963;-68
2021/12/24 09:24:06;;;;;;;;;;;;;;;4.39;100.00;98241.06;4917897;29;19954;-68
2021/12/24 09:26:33;;;;;;;;;;;;;;;4.37;100.00;98246.19;4917665;29;19952;-68
2021/12/24 09:29:02;;;;;;;;;;;;;;;4.41;100.00;98247.06;4917862;29;19990;-68
2021/12/24 09:31:29;;;;;;;;;;;;;;;4.43;100.00;98249.44;4918193;29;20375;-68
2021/12/24 09:33:56;;;;;;;;;;;;;;;4.46;100.00;98235.72;4917877;29;19963;-68
2021/12/24 09:36:26;;;;;;;;;;;;;;;4.49;100.00;98243.31;4917455;29;19962;-68
2021/12/24 09:38:55;;;;;;;;;;;;;;;4.55;100.00;98241.03;4910105;29;19962;-68
2021/12/24 09:41:23;;;;;;;;;;;;;;;4.51;100.00;98254.81;4917921;29;19979;-69
2021/12/24 09:43:51;;;;;;;;;;;;;;;4.47;100.00;98229.03;4919126;29;19965;-68
2021/12/24 09:46:18;;;;;;;;;;;;;;;4.51;100.00;98249.28;4903105;29;19959;-68
2021/12/24 09:48:45;;;;;;;;;;;;;;;4.55;100.00;98244.63;4901850;29;20809;-68
2021/12/24 09:51:13;;;;;;;;;;;;;;;4.54;100.00;98251.34;4918164;29;20108;-68
2021/12/24 09:53:40;;;;;;;;;;;;;;;4.49;100.00;98259.91;4917723;29;19951;-68
2021/12/24 09:56:08;;;;;;;;;;;;;;;4.51;100.00;98245.69;4914860;29;19947;-68
2021/12/24 09:58:35;;;;;;;;;;;;;;;4.47;100.00;98248.41;4918087;29;19965;-68
2021/12/24 10:01:02;;;;;;;;;;;;;;;4.50;100.00;98253.19;4918584;29;20250;-68
2021/12/24 10:03:32;;;;;;;;;;;;;;;4.46;100.00;98257.84;4918474;29;19951;-68
2021/12/24 10:06:00;;;;;;;;;;;;;;;4.42;100.00;98253.41;4918867;29;19948;-68
2021/12/24 10:08:28;;;;;;;;;;;;;;;4.48;100.00;98261.06;4916172;29;20337;-68
2021/12/24 10:11:00;;;;;;;;;;;;;;;4.37;100.00;98248.13;4899523;29;19956;-68
2021/12/24 10:13:27;;;;;;;;;;;;;;;4.41;100.00;98255.34;4899233;29;19955;-68
2021/12/24 10:15:57;;;;;;;;;;;;;;;4.41;100.00;98263.66;4917397;29;19956;-67
2021/12/24 10:18:44;;;;;;;;;;;;;;;4.32;100.00;98260.28;4917007;29;19951;-68
2021/12/24 10:21:13;;;;;;;;;;;;;;;4.32;100.00;98257.53;4903891;29;19969;-68
2021/12/24 10:23:45;;;;;;;;;;;;;;;4.31;100.00;98253.13;4908030;29;19953;-68
2021/12/24 10:26:17;;;;;;;;;;;;;;;4.25;100.00;98246.28;4907968;29;19955;-68
2021/12/24 10:28:51;;;;;;;;;;;;;;;4.18;100.00;98240.53;4915111;29;20278;-68
2021/12/24 10:31:22;;;;;;;;;;;;;;;4.22;100.00;98235.09;4901908;29;20787;-68
2021/12/24 10:34:08;;;;;;;;;;;;;;;4.20;100.00;98243.78;4916049;29;19971;-68
2021/12/24 10:36:54;;;;;;;;;;;;;;;4.22;100.00;98233.16;4916604;29;19957;-67
2021/12/24 10:39:33;;;;;;;;;;;;;;;4.23;100.00;98237.50;4910147;29;19960;-67
2021/12/24 10:42:04;;;;;;;;;;;;;;;4.27;100.00;98243.13;4918547;29;19958;-67
2021/12/24 10:44:33;;;;;;;;;;;;;;;4.32;100.00;98237.34;4917123;29;19954;-67
2021/12/24 10:47:06;;;;;;;;;;;;;;;4.34;100.00;98227.50;4916032;29;20607;-67
2021/12/24 10:54:52;;;;;;;;;;;;;;;4.33;100.00;98220.34;4916586;29;19975;-68
2021/12/24 10:57:23;;;;;;;;;;;;;;;4.26;100.00;98219.38;4917020;29;19975;-67
2021/12/24 10:59:53;;;;;;;;;;;;;;;4.31;100.00;98213.56;4915289;29;19957;-67
2021/12/24 11:02:23;;;;;;;;;;;;;;;4.28;100.00;98217.84;4913770;29;19955;-67
2021/12/24 11:04:53;;;;;;;;;;;;;;;4.28;100.00;98206.00;4911618;29;19953;-68
2021/12/24 11:07:32;;;;;;;;;;;;;;;4.25;100.00;98212.25;4916325;29;19949;-67
2021/12/24 11:10:23;;;;;;;;;;;;;;;4.28;100.00;98211.53;4914582;29;19997;-68
2021/12/24 11:12:55;;;;;;;;;;;;;;;4.30;100.00;98221.09;4916920;29;19952;-68
2021/12/24 11:15:45;;;;;;;;;;;;;;;4.39;100.00;98207.06;4917108;29;19963;-68
2021/12/24 11:18:13;;;;;;;;;;;;;;;4.34;100.00;98204.56;4908737;29;19960;-68
2021/12/24 11:20:40;;;;;;;;;;;;;;;4.35;100.00;98206.94;4916178;29;19959;-68
2021/12/24 11:23:11;;;;;;;;;;;;;;;4.35;100.00;98214.47;4916163;29;19961;-68
2021/12/24 11:25:53;;;;;;;;;;;;;;;4.35;100.00;98198.66;4912216;29;19959;-68
2021/12/24 11:28:22;;;;;;;;;;;;;;;4.38;100.00;98186.88;4911648;29;19962;-68
2021/12/24 11:30:55;;;;;;;;;;;;;;;4.39;100.00;98191.25;4915497;29;19980;-68
2021/12/24 11:33:24;;;;;;;;;;;;;;;4.38;100.00;98184.09;4915113;29;19960;-68
2021/12/24 11:35:52;;;;;;;;;;;;;;;4.40;100.00;98183.75;4915024;29;19952;-68
2021/12/24 11:38:21;;;;;;;;;;;;;;;4.36;100.00;98180.88;4916201;29;19959;-68
2021/12/24 11:40:49;;;;;;;;;;;;;;;4.39;100.00;98171.06;4916146;29;19970;-68
2021/12/24 11:43:18;;;;;;;;;;;;;;;4.30;100.00;98159.41;4915893;29;20233;-67
2021/12/24 11:45:45;;;;;;;;;;;;;;;4.33;100.00;98164.19;4917377;29;20250;-67
2021/12/24 11:48:13;;;;;;;;;;;;;;;4.30;100.00;98160.19;4919484;29;19963;-68
2021/12/24 11:50:40;;;;;;;;;;;;;;;4.29;100.00;98150.28;4917615;29;19981;-67
2021/12/24 11:53:09;;;;;;;;;;;;;;;4.27;100.00;98155.38;4919281;29;19965;-68
2021/12/24 11:55:38;;;;;;;;;;;;;;;4.18;100.00;98151.97;4919231;29;19954;-75
2021/12/24 11:58:07;;;;;;;;;;;;;;;4.25;100.00;98162.44;4919959;29;19955;-68
2021/12/24 12:00:41;;;;;;;;;;;;;;;4.18;100.00;98156.72;4911992;29;19970;-68
2021/12/24 12:03:10;;;;;;;;;;;;;;;4.13;100.00;98149.50;4917957;29;19982;-68
2021/12/24 12:05:38;;;;;;;;;;;;;;;4.15;100.00;98143.63;4917790;29;19954;-68
2021/12/24 12:08:30;;;;;;;;;;;;;;;4.14;100.00;98145.56;4919244;29;19956;-68
2021/12/24 12:11:01;;;;;;;;;;;;;;;4.16;100.00;98146.00;4911885;29;19994;-68
2021/12/24 12:13:44;;;;;;;;;;;;;;;4.17;100.00;98136.56;4901660;29;19949;-67
2021/12/24 12:16:16;;;;;;;;;;;;;;;4.18;100.00;98131.84;4919103;29;19951;-68
2021/12/24 12:19:00;;;;;;;;;;;;;;;4.15;100.00;98127.00;4919310;29;19957;-68
2021/12/24 12:21:42;;;;;;;;;;;;;;;4.18;100.00;98126.28;4918527;29;20349;-68
2021/12/24 12:26:43;;;;;;;;;;;;;;;4.16;100.00;98118.34;4919176;29;19951;-68
2021/12/24 12:29:39;;;;;;;;;;;;;;;4.26;100.00;98116.97;4919179;29;19970;-68
2021/12/24 12:32:13;;;;;;;;;;;;;;;4.30;100.00;98118.69;4893096;29;19952;-68
2021/12/24 12:34:41;;;;;;;;;;;;;;;4.32;100.00;98112.78;4915588;29;19967;-68
2021/12/24 12:37:08;;;;;;;;;;;;;;;4.30;100.00;98098.50;4918869;29;19957;-68
2021/12/24 12:39:36;;;;;;;;;;;;;;;4.40;100.00;98093.19;4918405;29;19968;-68
2021/12/24 12:42:04;;;;;;;;;;;;;;;4.51;100.00;98090.66;4918500;29;20348;-68
2021/12/24 12:44:32;;;;;;;;;;;;;;;4.42;100.00;98093.66;4918171;29;19958;-68
2021/12/24 12:47:09;;;;;;;;;;;;;;;4.46;100.00;98091.75;4912169;29;20235;-67
2021/12/24 12:49:36;;;;;;;;;;;;;;;4.46;100.00;98082.63;4900232;29;19951;-67
2021/12/24 12:52:07;;;;;;;;;;;;;;;4.43;100.00;98078.63;4914937;29;19958;-68
2021/12/24 12:54:46;;;;;;;;;;;;;;;4.35;100.00;98090.69;4910413;29;20661;-68
2021/12/24 12:57:30;;;;;;;;;;;;;;;4.32;100.00;98074.03;4914680;29;19969;-67
2021/12/24 13:00:18;;;;;;;;;;;;;;;4.32;100.00;98085.09;4916310;29;19957;-67
2021/12/24 13:02:58;;;;;;;;;;;;;;;4.35;100.00;98063.00;4913873;29;19949;-67
2021/12/24 13:05:27;;;;;;;;;;;;;;;4.29;100.00;98077.50;4909442;29;20326;-67
2021/12/24 13:07:59;;;;;;;;;;;;;;;4.32;100.00;98066.53;4909599;29;19959;-67
2021/12/24 13:10:27;;;;;;;;;;;;;;;4.29;100.00;98069.22;4915499;29;19979;-68
2021/12/24 13:13:01;;;;;;;;;;;;;;;4.31;100.00;98059.38;4918226;29;19955;-68
2021/12/24 13:15:29;;;;;;;;;;;;;;;4.37;100.00;98065.44;4898623;29;19992;-68
2021/12/24 13:18:01;;;;;;;;;;;;;;;4.29;100.00;98064.47;4898670;29;20553;-67
2021/12/24 13:22:26;;;;;;;;;;;;;;;4.25;100.00;98066.38;4899266;29;19954;-67
2021/12/24 13:23:32;;;;;;;;;;;;;;;4.27;100.00;98064.03;4915956;29;19972;-67
2021/12/24 13:26:09;;;;;;;;;;;;;;;4.30;100.00;98056.97;4937127;29;19956;-67
2021/12/24 13:28:55;;;;;;;;;;;;;;;4.27;100.00;98066.00;4937008;29;19949;-67
2021/12/24 13:31:23;;;;;;;;;;;;;;;4.25;100.00;98060.84;4923077;29;19964;-67
2021/12/24 13:33:50;;;;;;;;;;;;;;;4.17;100.00;98056.31;4917193;29;19956;-67
2021/12/24 13:36:21;;;;;;;;;;;;;;;4.15;100.00;98055.06;4916960;29;19957;-67
2021/12/24 13:38:49;;;;;;;;;;;;;;;4.12;100.00;98042.75;4922806;29;19952;-67
2021/12/24 13:41:16;;;;;;;;;;;;;;;4.10;100.00;98055.34;4915059;29;20302;-67
2021/12/24 13:43:44;;;;;;;;;;;;;;;4.03;100.00;98044.94;4917450;29;19946;-67
2021/12/24 13:46:12;;;;;;;;;;;;;;;4.03;100.00;98056.00;4917897;29;20436;-67
2021/12/24 13:56:44;;;;;;;;;;;;;;;3.94;100.00;98050.66;4898325;29;19947;-67
2021/12/24 13:59:13;;;;;;;;;;;;;;;3.98;100.00;98045.22;4909748;29;19961;-67
2021/12/24 14:01:42;;;;;;;;;;;;;;;3.94;100.00;98047.06;4917582;29;19970;-67
2021/12/24 14:04:10;;;;;;;;;;;;;;;3.93;100.00;98037.19;4915742;29;19955;-67
2021/12/24 14:06:41;;;;;;;;;;;;;;;3.92;100.00;98033.63;4916731;29;19958;-67
2021/12/24 14:09:08;;;;;;;;;;;;;;;3.87;100.00;98033.91;4911646;29;20366;-67
2021/12/24 14:11:37;;;;;;;;;;;;;;;3.91;100.00;98036.75;4916424;29;19978;-67
2021/12/24 14:14:11;;;;;;;;;;;;;;;3.96;100.00;98040.03;4916837;29;19958;-67
2021/12/24 14:19:32;;;;;;;;;;;;;;;3.95;100.00;98043.97;4915099;29;19965;-67
2021/12/24 14:22:11;;;;;;;;;;;;;;;3.90;100.00;98051.72;4916315;29;20348;-68
2021/12/24 14:24:59;;;;;;;;;;;;;;;3.94;100.00;98049.84;4916844;29;20369;-67
2021/12/24 14:27:28;;;;;;;;;;;;;;;3.90;100.00;98048.97;4927905;29;19952;-67
2021/12/24 14:29:58;;;;;;;;;;;;;;;3.80;100.00;98035.69;4916316;29;19957;-67
2021/12/24 14:32:28;;;;;;;;;;;;;;;3.77;100.00;98039.97;4912696;29;19963;-67
2021/12/24 14:34:56;;;;;;;;;;;;;;;3.80;100.00;98033.72;4908145;29;20257;-67
2021/12/24 14:37:35;;;;;;;;;;;;;;;3.81;100.00;98040.06;4915565;29;20245;-67
2021/12/24 14:40:09;;;;;;;;;;;;;;;3.85;100.00;98032.66;4912225;29;20375;-67
2021/12/24 14:42:37;;;;;;;;;;;;;;;3.86;100.00;98034.25;4905037;29;19953;-67
2021/12/24 14:45:18;;;;;;;;;;;;;;;3.80;100.00;98046.75;4915991;29;19954;-67
2021/12/24 14:47:59;;;;;;;;;;;;;;;3.77;100.00;98034.44;4916338;29;19960;-67
2021/12/24 14:50:28;;;;;;;;;;;;;;;3.76;100.00;98023.75;4914873;29;19953;-67
2021/12/24 14:53:14;;;;;;;;;;;;;;;3.70;100.00;98025.19;4914860;29;19952;-67
2021/12/24 14:55:47;;;;;;;;;;;;;;;3.65;100.00;98034.56;4910723;29;19952;-68
2021/12/24 14:58:26;;;;;;;;;;;;;;;3.61;100.00;98024.56;4914120;29;19948;-68
2021/12/24 15:00:54;;;;;;;;;;;;;;;3.61;100.00;98024.56;4914993;29;19953;-67
2021/12/24 15:03:27;;;;;;;;;;;;;;;3.60;100.00;98026.53;4915357;29;19965;-74
2021/12/24 15:05:54;;;;;;;;;;;;;;;3.59;100.00;98035.19;4912718;29;19960;-68
2021/12/24 15:08:23;;;;;;;;;;;;;;;3.62;100.00;98029.75;4915673;29;19953;-69
2021/12/24 15:10:59;;;;;;;;;;;;;;;3.66;100.00;98021.53;4911688;29;19979;-69
2021/12/24 15:13:27;;;;;;;;;;;;;;;3.63;100.00;98013.97;4913150;29;19952;-68
2021/12/24 15:15:56;;;;;;;;;;;;;;;3.65;100.00;98015.19;4916025;29;19952;-68
2021/12/24 15:18:24;;;;;;;;;;;;;;;3.65;100.00;98017.97;4910888;29;19952;-68
2021/12/24 15:20:52;;;;;;;;;;;;;;;3.67;100.00;98028.66;4915084;29;19960;-68
2021/12/24 15:23:19;;;;;;;;;;;;;;;3.70;100.00;98030.72;4908167;29;20258;-68
2021/12/24 15:25:47;;;;;;;;;;;;;;;3.70;100.00;98031.53;4913609;29;19950;-68
2021/12/24 15:28:19;;;;;;;;;;;;;;;3.69;100.00;98027.13;4913480;29;19959;-67
2021/12/24 15:30:48;;;;;;;;;;;;;;;3.65;100.00;98026.25;4912625;29;20266;-68
2021/12/24 15:33:16;;;;;;;;;;;;;;;3.58;100.00;98028.06;4917850;29;19952;-68
2021/12/24 15:35:45;;;;;;;;;;;;;;;3.50;100.00;98026.28;4914508;29;19956;-68
2021/12/24 15:38:12;;;;;;;;;;;;;;;3.51;100.00;98025.94;4915568;29;19964;-68
2021/12/24 15:40:40;;;;;;;;;;;;;;;3.54;100.00;98016.94;4910312;29;19997;-68
2021/12/24 15:43:08;;;;;;;;;;;;;;;3.48;100.00;98014.78;4911852;29;19951;-68
2021/12/24 15:45:37;;;;;;;;;;;;;;;3.44;100.00;98022.19;4915496;29;19962;-68
2021/12/24 15:48:05;;;;;;;;;;;;;;;3.50;100.00;98009.69;4913146;29;19963;-67
2021/12/24 15:50:33;;;;;;;;;;;;;;;3.45;100.00;98023.81;4914731;29;19958;-67
2021/12/24 15:53:01;;;;;;;;;;;;;;;3.48;100.00;98029.41;4901988;29;20356;-69
2021/12/24 15:55:31;;;;;;;;;;;;;;;3.49;100.00;98028.25;4911131;29;20349;-67
2021/12/24 15:58:01;;;;;;;;;;;;;;;3.53;100.00;98033.84;4915417;29;19968;-67
2021/12/24 16:00:29;;;;;;;;;;;;;;;3.45;100.00;98027.34;4915810;29;20286;-68
2021/12/24 16:02:56;;;;;;;;;;;;;;;3.45;100.00;98024.59;4915732;29;19949;-67
2021/12/24 16:05:24;;;;;;;;;;;;;;;3.48;100.00;98023.06;4915674;29;19960;-67
2021/12/24 16:07:51;;;;;;;;;;;;;;;3.50;100.00;98020.75;4915346;29;20328;-67
2021/12/24 16:10:19;;;;;;;;;;;;;;;3.44;100.00;98020.22;4914820;29;19956;-68
2021/12/24 16:12:46;;;;;;;;;;;;;;;3.42;100.00;98019.00;4915453;29;19973;-68
2021/12/24 16:15:15;;;;;;;;;;;;;;;3.36;100.00;98017.63;4915493;29;19965;-68
2021/12/24 16:17:43;;;;;;;;;;;;;;;3.38;100.00;98018.09;4914569;29;20340;-68
2021/12/24 16:20:12;;;;;;;;;;;;;;;3.36;100.00;98009.34;4913274;29;20532;-68
2021/12/24 16:22:39;;;;;;;;;;;;;;;3.28;100.00;98000.06;4912642;29;19958;-68
2021/12/24 16:25:08;;;;;;;;;;;;;;;3.27;100.00;97996.53;4913719;29;19965;-68
2021/12/24 16:27:35;;;;;;;;;;;;;;;3.23;100.00;97992.06;4915789;29;19961;-68
2021/12/24 16:30:08;;;;;;;;;;;;;;;3.33;100.00;97997.03;4915222;29;19988;-68
2021/12/24 16:32:36;;;;;;;;;;;;;;;3.27;100.00;97985.50;4898515;29;19968;-70
2021/12/24 16:35:11;;;;;;;;;;;;;;;3.31;100.00;97991.09;4911798;29;19952;-68
2021/12/24 16:37:39;;;;;;;;;;;;;;;3.30;100.00;97976.47;4917513;29;19955;-68
2021/12/24 16:40:08;;;;;;;;;;;;;;;3.33;100.00;97972.19;4918059;29;20432;-68
2021/12/24 16:42:37;;;;;;;;;;;;;;;3.37;100.00;97958.47;4918076;29;19958;-68
2021/12/24 16:45:04;;;;;;;;;;;;;;;3.35;100.00;97969.84;4918229;29;20519;-67
2021/12/24 16:47:32;;;;;;;;;;;;;;;3.33;100.00;97963.13;4917033;29;19957;-67
2021/12/24 16:49:59;;;;;;;;;;;;;;;3.28;100.00;97962.22;4913541;29;19963;-67
2021/12/24 16:52:26;;;;;;;;;;;;;;;3.24;100.00;97955.00;4903948;29;19976;-67
2021/12/24 16:54:54;;;;;;;;;;;;;;;3.19;100.00;97946.97;4905370;29;19951;-67
2021/12/24 16:57:21;;;;;;;;;;;;;;;3.25;100.00;97946.34;4918618;29;20640;-67
2021/12/24 16:59:48;;;;;;;;;;;;;;;3.18;100.00;97937.88;4918716;29;19960;-67
2021/12/24 17:02:16;;;;;;;;;;;;;;;3.21;100.00;97941.88;4918390;29;19957;-67
2021/12/24 17:04:44;;;;;;;;;;;;;;;3.20;100.00;97943.84;4917518;29;19956;-68
2021/12/24 17:07:12;;;;;;;;;;;;;;;3.20;100.00;97949.38;4906936;29;19949;-68
2021/12/24 17:09:40;;;;;;;;;;;;;;;3.23;100.00;97947.84;4914043;29;19954;-68
2021/12/24 17:12:10;;;;;;;;;;;;;;;3.20;100.00;97949.38;4914242;29;19965;-69
2021/12/24 17:14:41;;;;;;;;;;;;;;;3.14;100.00;97950.00;4915945;29;19960;-68
2021/12/24 17:17:09;;;;;;;;;;;;;;;3.13;100.00;97949.19;4912739;29;19960;-68
2021/12/24 17:19:36;;;;;;;;;;;;;;;3.20;100.00;97943.06;4913967;29;19970;-69
2021/12/24 17:22:04;;;;;;;;;;;;;;;3.22;100.00;97947.06;4914142;29;19982;-74
2021/12/24 17:24:32;;;;;;;;;;;;;;;3.25;100.00;97951.84;4916804;29;19953;-68
2021/12/24 17:27:00;;;;;;;;;;;;;;;3.27;100.00;97955.09;4908640;29;19959;-68
2021/12/24 17:29:28;;;;;;;;;;;;;;;3.33;100.00;97963.13;4905930;29;19951;-68
2021/12/24 17:31:55;;;;;;;;;;;;;;;3.40;100.00;97955.75;4906311;29;19964;-68
2021/12/24 17:34:23;;;;;;;;;;;;;;;3.40;100.00;97954.97;4912818;29;19995;-68
2021/12/24 17:36:51;;;;;;;;;;;;;;;3.46;100.00;97959.88;4917031;29;19953;-68
2021/12/24 17:39:18;;;;;;;;;;;;;;;3.49;100.00;97959.16;4884983;29;19960;-68
2021/12/24 17:41:46;;;;;;;;;;;;;;;3.50;100.00;97949.69;4916918;29;20358;-68
2021/12/24 17:44:15;;;;;;;;;;;;;;;3.53;100.00;97950.94;4907376;29;19984;-68
2021/12/24 17:46:43;;;;;;;;;;;;;;;3.48;100.00;97953.97;4915433;29;20035;-67
2021/12/24 17:49:10;;;;;;;;;;;;;;;3.40;100.00;97950.22;4917065;29;19959;-67
2021/12/24 17:51:38;;;;;;;;;;;;;;;3.34;100.00;97943.41;4918125;29;19954;-68
2021/12/24 17:54:06;;;;;;;;;;;;;;;3.33;100.00;97948.13;4911814;29;19998;-67
2021/12/24 17:56:34;;;;;;;;;;;;;;;3.37;100.00;97950.16;4916465;29;19958;-66
2021/12/24 17:59:01;;;;;;;;;;;;;;;3.41;100.00;97945.50;4916147;29;19960;-66
2021/12/24 18:01:28;;;;;;;;;;;;;;;3.36;100.00;97946.59;4915609;29;19962;-68
2021/12/24 18:03:56;;;;;;;;;;;;;;;3.36;100.00;97948.56;4911935;29;19952;-68
2021/12/24 18:06:24;;;;;;;;;;;;;;;3.35;100.00;97933.16;4899113;29;19957;-68
2021/12/24 18:08:52;;;;;;;;;;;;;;;3.29;100.00;97936.19;4915508;29;19970;-68
2021/12/24 18:11:20;;;;;;;;;;;;;;;3.22;100.00;97936.03;4914265;29;19951;-67
2021/12/24 18:13:48;;;;;;;;;;;;;;;3.23;100.00;97951.44;4913115;29;19979;-67
2021/12/24 18:16:16;;;;;;;;;;;;;;;3.17;100.00;97952.06;4913848;29;19975;-67
2021/12/24 18:18:43;;;;;;;;;;;;;;;3.13;100.00;97942.91;4916186;29;20601;-66
2021/12/24 18:21:11;;;;;;;;;;;;;;;3.10;100.00;97949.94;4911521;29;19959;-68
2021/12/24 18:23:39;;;;;;;;;;;;;;;3.15;100.00;97941.38;4914018;29;19946;-68
2021/12/24 18:26:09;;;;;;;;;;;;;;;3.17;100.00;97944.59;4906931;29;19985;-67
2021/12/24 18:28:38;;;;;;;;;;;;;;;3.14;100.00;97945.28;4914134;29;19961;-68
2021/12/24 18:31:06;;;;;;;;;;;;;;;3.20;100.00;97952.13;4905461;29;19952;-69
2021/12/24 18:33:34;;;;;;;;;;;;;;;3.25;100.00;97943.56;4917380;29;19981;-68
2021/12/24 18:36:01;;;;;;;;;;;;;;;3.22;100.00;97937.97;4904002;29;19953;-68
2021/12/24 18:38:31;;;;;;;;;;;;;;;3.25;100.00;97929.75;4909356;29;19952;-68
2021/12/24 18:40:58;;;;;;;;;;;;;;;3.25;100.00;97937.28;4909966;29;19968;-68
2021/12/24 18:43:29;;;;;;;;;;;;;;;3.22;100.00;97943.50;4905885;29;19945;-67
2021/12/24 18:45:57;;;;;;;;;;;;;;;3.15;100.00;97938.63;4911560;29;19959;-67
2021/12/24 18:48:24;;;;;;;;;;;;;;;3.09;100.00;97937.28;4915400;29;19951;-68
2021/12/24 18:50:53;;;;;;;;;;;;;;;3.11;100.00;97936.91;4916761;29;19959;-67
2021/12/24 18:53:21;;;;;;;;;;;;;;;3.10;100.00;97941.66;4915180;29;19978;-67
2021/12/24 18:55:49;;;;;;;;;;;;;;;3.12;100.00;97933.81;4915811;29;19950;-67
2021/12/24 18:58:17;;;;;;;;;;;;;;;3.11;100.00;97925.84;4915419;29;19962;-68
2021/12/24 19:00:45;;;;;;;;;;;;;;;3.10;100.00;97927.84;4899623;29;20226;-67